sensor_id;sensor_type;location;lat;lon;timestamp;temperature;humidity
13482;DHT22;6813;60.352;15.746;2023-08-21T00:02:19;17.80;99.90
13482;DHT22;6813;60.352;15.746;2023-08-21T00:04:44;17.90;99.90
13482;DHT22;6813;60.352;15.746;2023-08-21T00:07:10;17.70;99.90
13482;DHT22;6813;60.352;15.746;2023-08-21T00:09:37;17.70;99.90
13482;DHT22;6813;60.352;15.746;2023-08-21T00:12:03;17.60;99.90
13482;DHT22;6813;60.352;15.746;2023-08-21T00:14:29;17.50;99.90
13482;DHT22;6813;60.352;15.746;2023-08-21T00:16:54;17.40;99.90
13482;DHT22;6813;60.352;15.746;2023-08-21T00:19:20;17.30;99.90
13482;DHT22;6813;60.352;15.746;2023-08-21T00:21:46;17.20;99.90
13482;DHT22;6813;60.352;15.746;2023-08-21T00:24:11;17.30;99.90
13482;DHT22;6813;60.352;15.746;2023-08-21T00:26:37;17.30;99.90
13482;DHT22;6813;60.352;15.746;2023-08-21T00:29:03;17.30;99.90
13482;DHT22;6813;60.352;15.746;2023-08-21T00:31:29;17.20;99.90
13482;DHT22;6813;60.352;15.746;2023-08-21T00:33:54;17.10;99.90
13482;DHT22;6813;60.352;15.746;2023-08-21T00:36:20;17.10;99.90
13482;DHT22;6813;60.352;15.746;2023-08-21T00:38:46;17.20;99.90
13482;DHT22;6813;60.352;15.746;2023-08-21T00:41:12;17.10;99.90
13482;DHT22;6813;60.352;15.746;2023-08-21T00:43:38;17.00;99.90
13482;DHT22;6813;60.352;15.746;2023-08-21T00:46:04;17.00;99.90
13482;DHT22;6813;60.352;15.746;2023-08-21T00:48:31;17.00;99.90
13482;DHT22;6813;60.352;15.746;2023-08-21T00:50:57;17.00;99.90
13482;DHT22;6813;60.352;15.746;2023-08-21T00:53:24;17.00;99.90
13482;DHT22;6813;60.352;15.746;2023-08-21T00:55:50;17.00;99.90
13482;DHT22;6813;60.352;15.746;2023-08-21T00:58:17;17.10;99.90
13482;DHT22;6813;60.352;15.746;2023-08-21T01:00:45;17.30;99.90
13482;DHT22;6813;60.352;15.746;2023-08-21T01:03:13;17.40;99.90
13482;DHT22;6813;60.352;15.746;2023-08-21T01:05:39;17.30;99.90
13482;DHT22;6813;60.352;15.746;2023-08-21T01:11:17;17.40;99.90
13482;DHT22;6813;60.352;15.746;2023-08-21T01:16:37;17.40;99.90
13482;DHT22;6813;60.352;15.746;2023-08-21T01:21:50;17.20;99.90
13482;DHT22;6813;60.352;15.746;2023-08-21T01:24:19;17.30;99.90
13482;DHT22;6813;60.352;15.746;2023-08-21T01:26:45;17.20;99.90
13482;DHT22;6813;60.352;15.746;2023-08-21T01:29:11;16.90;99.90
13482;DHT22;6813;60.352;15.746;2023-08-21T01:31:37;16.70;99.90
13482;DHT22;6813;60.352;15.746;2023-08-21T01:34:06;16.60;99.90
13482;DHT22;6813;60.352;15.746;2023-08-21T01:36:36;16.60;99.90
13482;DHT22;6813;60.352;15.746;2023-08-21T01:39:02;16.80;99.90
13482;DHT22;6813;60.352;15.746;2023-08-21T01:41:28;17.00;99.90
13482;DHT22;6813;60.352;15.746;2023-08-21T01:43:54;17.10;99.90
13482;DHT22;6813;60.352;15.746;2023-08-21T01:46:19;16.90;99.90
13482;DHT22;6813;60.352;15.746;2023-08-21T01:48:45;16.80;99.90
13482;DHT22;6813;60.352;15.746;2023-08-21T01:51:11;16.70;99.90
13482;DHT22;6813;60.352;15.746;2023-08-21T01:53:37;16.60;99.90
13482;DHT22;6813;60.352;15.746;2023-08-21T01:56:02;16.70;99.90
13482;DHT22;6813;60.352;15.746;2023-08-21T01:58:28;16.80;99.90
13482;DHT22;6813;60.352;15.746;2023-08-21T02:00:54;16.90;99.90
13482;DHT22;6813;60.352;15.746;2023-08-21T02:03:20;17.00;99.90
13482;DHT22;6813;60.352;15.746;2023-08-21T02:05:45;17.10;99.90
13482;DHT22;6813;60.352;15.746;2023-08-21T02:08:14;17.30;99.90
13482;DHT22;6813;60.352;15.746;2023-08-21T02:10:50;17.40;99.90
13482;DHT22;6813;60.352;15.746;2023-08-21T02:13:16;17.50;99.90
13482;DHT22;6813;60.352;15.746;2023-08-21T02:15:42;17.70;99.90
13482;DHT22;6813;60.352;15.746;2023-08-21T02:18:07;17.70;99.90
13482;DHT22;6813;60.352;15.746;2023-08-21T02:20:33;17.70;99.90
13482;DHT22;6813;60.352;15.746;2023-08-21T02:22:59;17.60;99.90
13482;DHT22;6813;60.352;15.746;2023-08-21T02:25:24;17.60;99.90
13482;DHT22;6813;60.352;15.746;2023-08-21T02:27:50;17.50;99.90
13482;DHT22;6813;60.352;15.746;2023-08-21T02:30:17;17.30;99.90
13482;DHT22;6813;60.352;15.746;2023-08-21T02:32:42;17.30;99.90
13482;DHT22;6813;60.352;15.746;2023-08-21T02:35:08;17.30;99.90
13482;DHT22;6813;60.352;15.746;2023-08-21T02:37:35;17.40;99.90
13482;DHT22;6813;60.352;15.746;2023-08-21T02:40:05;17.30;99.90
13482;DHT22;6813;60.352;15.746;2023-08-21T02:42:33;17.30;99.90
13482;DHT22;6813;60.352;15.746;2023-08-21T02:44:59;17.30;99.90
13482;DHT22;6813;60.352;15.746;2023-08-21T02:47:25;17.40;99.90
13482;DHT22;6813;60.352;15.746;2023-08-21T02:49:50;17.50;99.90
13482;DHT22;6813;60.352;15.746;2023-08-21T02:52:17;17.50;99.90
13482;DHT22;6813;60.352;15.746;2023-08-21T02:54:43;17.60;99.90
13482;DHT22;6813;60.352;15.746;2023-08-21T02:57:09;17.60;99.90
13482;DHT22;6813;60.352;15.746;2023-08-21T02:59:34;17.60;99.90
13482;DHT22;6813;60.352;15.746;2023-08-21T03:02:00;17.70;99.90
13482;DHT22;6813;60.352;15.746;2023-08-21T03:04:26;17.80;99.90
13482;DHT22;6813;60.352;15.746;2023-08-21T03:06:52;17.90;99.90
13482;DHT22;6813;60.352;15.746;2023-08-21T03:09:17;17.90;99.90
13482;DHT22;6813;60.352;15.746;2023-08-21T03:11:43;17.80;99.90
13482;DHT22;6813;60.352;15.746;2023-08-21T03:14:09;17.70;99.90
13482;DHT22;6813;60.352;15.746;2023-08-21T03:16:34;17.50;99.90
13482;DHT22;6813;60.352;15.746;2023-08-21T03:19:00;17.30;99.90
13482;DHT22;6813;60.352;15.746;2023-08-21T03:21:27;17.30;99.90
13482;DHT22;6813;60.352;15.746;2023-08-21T03:23:57;17.40;99.90
13482;DHT22;6813;60.352;15.746;2023-08-21T03:26:24;17.20;99.90
13482;DHT22;6813;60.352;15.746;2023-08-21T03:28:50;17.40;99.90
13482;DHT22;6813;60.352;15.746;2023-08-21T03:31:15;17.30;99.90
13482;DHT22;6813;60.352;15.746;2023-08-21T03:33:41;17.00;99.90
13482;DHT22;6813;60.352;15.746;2023-08-21T03:36:07;17.00;99.90
13482;DHT22;6813;60.352;15.746;2023-08-21T03:38:33;17.10;99.90
13482;DHT22;6813;60.352;15.746;2023-08-21T03:40:59;17.20;99.90
13482;DHT22;6813;60.352;15.746;2023-08-21T03:43:25;17.30;99.90
13482;DHT22;6813;60.352;15.746;2023-08-21T03:45:51;17.40;99.90
13482;DHT22;6813;60.352;15.746;2023-08-21T03:48:17;17.40;99.90
13482;DHT22;6813;60.352;15.746;2023-08-21T03:50:42;17.50;99.90
13482;DHT22;6813;60.352;15.746;2023-08-21T03:53:08;17.50;99.90
13482;DHT22;6813;60.352;15.746;2023-08-21T03:55:34;17.60;99.90
13482;DHT22;6813;60.352;15.746;2023-08-21T03:58:00;17.60;99.90
13482;DHT22;6813;60.352;15.746;2023-08-21T04:00:26;17.50;99.90
13482;DHT22;6813;60.352;15.746;2023-08-21T04:02:51;17.40;99.90
13482;DHT22;6813;60.352;15.746;2023-08-21T04:05:17;17.40;99.90
13482;DHT22;6813;60.352;15.746;2023-08-21T04:07:43;17.30;99.90
13482;DHT22;6813;60.352;15.746;2023-08-21T04:10:09;17.30;99.90
13482;DHT22;6813;60.352;15.746;2023-08-21T04:12:34;17.20;99.90
13482;DHT22;6813;60.352;15.746;2023-08-21T04:15:00;16.90;99.90
13482;DHT22;6813;60.352;15.746;2023-08-21T04:17:26;16.90;99.90
13482;DHT22;6813;60.352;15.746;2023-08-21T04:19:52;16.80;99.90
13482;DHT22;6813;60.352;15.746;2023-08-21T04:22:17;16.70;99.90
13482;DHT22;6813;60.352;15.746;2023-08-21T04:24:44;16.80;99.90
13482;DHT22;6813;60.352;15.746;2023-08-21T04:27:10;16.90;99.90
13482;DHT22;6813;60.352;15.746;2023-08-21T04:29:36;17.00;99.90
13482;DHT22;6813;60.352;15.746;2023-08-21T04:32:01;16.80;99.90
13482;DHT22;6813;60.352;15.746;2023-08-21T04:34:27;16.90;99.90
13482;DHT22;6813;60.352;15.746;2023-08-21T04:36:53;16.90;99.90
13482;DHT22;6813;60.352;15.746;2023-08-21T04:39:19;16.90;99.90
13482;DHT22;6813;60.352;15.746;2023-08-21T04:41:44;17.10;99.90
13482;DHT22;6813;60.352;15.746;2023-08-21T04:44:10;17.00;99.90
13482;DHT22;6813;60.352;15.746;2023-08-21T04:46:36;17.00;99.90
13482;DHT22;6813;60.352;15.746;2023-08-21T04:49:02;17.00;99.90
13482;DHT22;6813;60.352;15.746;2023-08-21T04:51:27;17.20;99.90
13482;DHT22;6813;60.352;15.746;2023-08-21T04:53:53;17.10;99.90
13482;DHT22;6813;60.352;15.746;2023-08-21T04:56:19;17.20;99.90
13482;DHT22;6813;60.352;15.746;2023-08-21T04:58:44;17.20;99.90
13482;DHT22;6813;60.352;15.746;2023-08-21T05:01:10;17.10;99.90
13482;DHT22;6813;60.352;15.746;2023-08-21T05:03:36;17.20;99.90
13482;DHT22;6813;60.352;15.746;2023-08-21T05:06:01;17.20;99.90
13482;DHT22;6813;60.352;15.746;2023-08-21T05:08:27;17.30;99.90
13482;DHT22;6813;60.352;15.746;2023-08-21T05:11:00;17.30;99.90
13482;DHT22;6813;60.352;15.746;2023-08-21T05:13:26;17.30;99.90
13482;DHT22;6813;60.352;15.746;2023-08-21T05:15:56;17.30;99.90
13482;DHT22;6813;60.352;15.746;2023-08-21T05:18:23;17.20;99.90
13482;DHT22;6813;60.352;15.746;2023-08-21T05:20:50;17.30;99.90
13482;DHT22;6813;60.352;15.746;2023-08-21T05:23:16;17.30;99.90
13482;DHT22;6813;60.352;15.746;2023-08-21T05:25:43;17.30;99.90
13482;DHT22;6813;60.352;15.746;2023-08-21T05:28:09;17.20;99.90
13482;DHT22;6813;60.352;15.746;2023-08-21T05:30:38;17.10;99.90
13482;DHT22;6813;60.352;15.746;2023-08-21T05:33:04;17.20;99.90
13482;DHT22;6813;60.352;15.746;2023-08-21T05:35:35;17.30;99.90
13482;DHT22;6813;60.352;15.746;2023-08-21T05:38:05;17.50;99.90
13482;DHT22;6813;60.352;15.746;2023-08-21T05:40:31;17.60;99.90
13482;DHT22;6813;60.352;15.746;2023-08-21T05:42:58;17.60;99.90
13482;DHT22;6813;60.352;15.746;2023-08-21T05:45:23;17.60;99.90
13482;DHT22;6813;60.352;15.746;2023-08-21T05:47:49;17.60;99.90
13482;DHT22;6813;60.352;15.746;2023-08-21T05:50:15;17.70;99.90
13482;DHT22;6813;60.352;15.746;2023-08-21T05:52:41;17.80;99.90
13482;DHT22;6813;60.352;15.746;2023-08-21T05:55:06;17.90;99.90
13482;DHT22;6813;60.352;15.746;2023-08-21T05:57:32;17.90;99.90
13482;DHT22;6813;60.352;15.746;2023-08-21T05:59:58;18.00;99.90
13482;DHT22;6813;60.352;15.746;2023-08-21T06:02:24;18.00;99.90
13482;DHT22;6813;60.352;15.746;2023-08-21T06:04:50;18.00;99.90
13482;DHT22;6813;60.352;15.746;2023-08-21T06:07:15;18.10;99.90
13482;DHT22;6813;60.352;15.746;2023-08-21T06:09:41;18.10;99.90
13482;DHT22;6813;60.352;15.746;2023-08-21T06:12:07;18.10;99.90
13482;DHT22;6813;60.352;15.746;2023-08-21T06:14:33;18.10;99.90
13482;DHT22;6813;60.352;15.746;2023-08-21T06:17:03;18.00;99.90
13482;DHT22;6813;60.352;15.746;2023-08-21T06:19:29;17.80;99.90
13482;DHT22;6813;60.352;15.746;2023-08-21T06:21:55;17.80;99.90
13482;DHT22;6813;60.352;15.746;2023-08-21T06:24:22;17.80;99.90
13482;DHT22;6813;60.352;15.746;2023-08-21T06:26:48;17.90;99.90
13482;DHT22;6813;60.352;15.746;2023-08-21T06:29:13;17.90;99.90
13482;DHT22;6813;60.352;15.746;2023-08-21T06:31:39;17.80;99.90
13482;DHT22;6813;60.352;15.746;2023-08-21T06:34:05;17.80;99.90
13482;DHT22;6813;60.352;15.746;2023-08-21T06:36:31;17.70;99.90
13482;DHT22;6813;60.352;15.746;2023-08-21T06:38:57;17.70;99.90
13482;DHT22;6813;60.352;15.746;2023-08-21T06:41:23;17.80;99.90
13482;DHT22;6813;60.352;15.746;2023-08-21T06:43:50;17.90;99.90
13482;DHT22;6813;60.352;15.746;2023-08-21T06:46:16;18.00;99.90
13482;DHT22;6813;60.352;15.746;2023-08-21T06:48:42;18.00;99.90
13482;DHT22;6813;60.352;15.746;2023-08-21T06:51:08;18.10;99.90
13482;DHT22;6813;60.352;15.746;2023-08-21T06:53:34;18.10;99.90
13482;DHT22;6813;60.352;15.746;2023-08-21T06:56:00;18.20;99.90
13482;DHT22;6813;60.352;15.746;2023-08-21T06:58:26;18.30;99.90
13482;DHT22;6813;60.352;15.746;2023-08-21T07:00:54;18.40;99.90
13482;DHT22;6813;60.352;15.746;2023-08-21T07:03:20;18.70;99.90
13482;DHT22;6813;60.352;15.746;2023-08-21T07:05:59;19.10;99.90
13482;DHT22;6813;60.352;15.746;2023-08-21T07:08:26;19.30;99.90
13482;DHT22;6813;60.352;15.746;2023-08-21T07:10:52;19.20;99.90
13482;DHT22;6813;60.352;15.746;2023-08-21T07:13:19;19.20;99.90
13482;DHT22;6813;60.352;15.746;2023-08-21T07:15:46;19.10;99.90
13482;DHT22;6813;60.352;15.746;2023-08-21T07:18:12;19.10;99.90
13482;DHT22;6813;60.352;15.746;2023-08-21T07:20:38;19.10;99.90
13482;DHT22;6813;60.352;15.746;2023-08-21T07:23:04;19.00;99.90
13482;DHT22;6813;60.352;15.746;2023-08-21T07:25:30;19.00;99.90
13482;DHT22;6813;60.352;15.746;2023-08-21T07:27:56;19.10;99.90
13482;DHT22;6813;60.352;15.746;2023-08-21T07:30:22;19.20;99.90
13482;DHT22;6813;60.352;15.746;2023-08-21T07:32:48;19.30;99.90
13482;DHT22;6813;60.352;15.746;2023-08-21T07:35:14;19.30;99.90
13482;DHT22;6813;60.352;15.746;2023-08-21T07:37:44;19.20;99.90
13482;DHT22;6813;60.352;15.746;2023-08-21T07:40:10;19.10;99.90
13482;DHT22;6813;60.352;15.746;2023-08-21T07:42:36;19.10;99.90
13482;DHT22;6813;60.352;15.746;2023-08-21T07:45:01;19.10;99.90
13482;DHT22;6813;60.352;15.746;2023-08-21T07:47:28;19.10;99.90
13482;DHT22;6813;60.352;15.746;2023-08-21T07:49:54;19.10;99.90
13482;DHT22;6813;60.352;15.746;2023-08-21T07:52:20;19.00;99.90
13482;DHT22;6813;60.352;15.746;2023-08-21T07:54:46;19.10;99.90
13482;DHT22;6813;60.352;15.746;2023-08-21T07:57:12;19.20;99.90
13482;DHT22;6813;60.352;15.746;2023-08-21T07:59:38;19.40;99.90
13482;DHT22;6813;60.352;15.746;2023-08-21T08:02:04;19.60;99.90
13482;DHT22;6813;60.352;15.746;2023-08-21T08:04:30;19.70;99.90
13482;DHT22;6813;60.352;15.746;2023-08-21T08:06:56;19.60;99.90
13482;DHT22;6813;60.352;15.746;2023-08-21T08:09:21;19.60;99.90
13482;DHT22;6813;60.352;15.746;2023-08-21T08:11:47;19.60;99.90
13482;DHT22;6813;60.352;15.746;2023-08-21T08:14:13;19.60;99.90
13482;DHT22;6813;60.352;15.746;2023-08-21T08:16:39;19.70;99.90
13482;DHT22;6813;60.352;15.746;2023-08-21T08:19:04;19.70;99.90
13482;DHT22;6813;60.352;15.746;2023-08-21T08:21:30;19.70;99.90
13482;DHT22;6813;60.352;15.746;2023-08-21T08:23:56;19.80;99.90
13482;DHT22;6813;60.352;15.746;2023-08-21T08:26:22;20.00;99.90
13482;DHT22;6813;60.352;15.746;2023-08-21T08:28:48;20.50;99.90
13482;DHT22;6813;60.352;15.746;2023-08-21T08:31:18;20.70;99.90
13482;DHT22;6813;60.352;15.746;2023-08-21T08:33:45;20.90;99.90
13482;DHT22;6813;60.352;15.746;2023-08-21T08:36:11;21.30;99.90
13482;DHT22;6813;60.352;15.746;2023-08-21T08:38:37;21.60;99.90
13482;DHT22;6813;60.352;15.746;2023-08-21T08:41:18;21.80;99.90
13482;DHT22;6813;60.352;15.746;2023-08-21T08:43:50;21.90;99.90
13482;DHT22;6813;60.352;15.746;2023-08-21T08:46:17;22.00;99.90
13482;DHT22;6813;60.352;15.746;2023-08-21T08:48:43;22.10;99.90
13482;DHT22;6813;60.352;15.746;2023-08-21T08:51:09;22.20;99.90
13482;DHT22;6813;60.352;15.746;2023-08-21T08:53:36;22.30;99.90
13482;DHT22;6813;60.352;15.746;2023-08-21T08:56:02;22.20;99.90
13482;DHT22;6813;60.352;15.746;2023-08-21T08:58:29;22.30;99.90
13482;DHT22;6813;60.352;15.746;2023-08-21T09:00:54;22.40;99.90
13482;DHT22;6813;60.352;15.746;2023-08-21T09:03:20;22.40;99.90
13482;DHT22;6813;60.352;15.746;2023-08-21T09:05:47;22.40;99.90
13482;DHT22;6813;60.352;15.746;2023-08-21T09:08:14;22.30;99.90
13482;DHT22;6813;60.352;15.746;2023-08-21T09:10:41;22.10;99.90
13482;DHT22;6813;60.352;15.746;2023-08-21T09:13:16;22.30;99.90
13482;DHT22;6813;60.352;15.746;2023-08-21T09:15:54;22.30;99.90
13482;DHT22;6813;60.352;15.746;2023-08-21T09:18:21;22.20;99.90
13482;DHT22;6813;60.352;15.746;2023-08-21T09:20:47;21.90;99.90
13482;DHT22;6813;60.352;15.746;2023-08-21T09:23:17;21.50;99.90
13482;DHT22;6813;60.352;15.746;2023-08-21T09:25:45;21.20;99.90
13482;DHT22;6813;60.352;15.746;2023-08-21T09:28:15;21.20;99.90
13482;DHT22;6813;60.352;15.746;2023-08-21T09:30:45;21.40;99.90
13482;DHT22;6813;60.352;15.746;2023-08-21T09:33:11;21.50;99.90
13482;DHT22;6813;60.352;15.746;2023-08-21T09:35:37;21.60;99.90
13482;DHT22;6813;60.352;15.746;2023-08-21T09:38:03;21.70;99.90
13482;DHT22;6813;60.352;15.746;2023-08-21T09:40:30;21.80;99.90
13482;DHT22;6813;60.352;15.746;2023-08-21T09:42:56;22.00;99.90
13482;DHT22;6813;60.352;15.746;2023-08-21T09:45:26;22.30;99.90
13482;DHT22;6813;60.352;15.746;2023-08-21T09:47:55;22.50;99.90
13482;DHT22;6813;60.352;15.746;2023-08-21T09:50:22;22.60;99.90
13482;DHT22;6813;60.352;15.746;2023-08-21T09:52:49;22.90;99.90
13482;DHT22;6813;60.352;15.746;2023-08-21T09:55:15;23.00;99.90
13482;DHT22;6813;60.352;15.746;2023-08-21T09:57:41;22.60;99.90
13482;DHT22;6813;60.352;15.746;2023-08-21T10:00:08;22.40;99.90
13482;DHT22;6813;60.352;15.746;2023-08-21T10:02:42;22.20;99.90
13482;DHT22;6813;60.352;15.746;2023-08-21T10:05:12;21.60;99.90
13482;DHT22;6813;60.352;15.746;2023-08-21T10:07:40;21.40;99.90
13482;DHT22;6813;60.352;15.746;2023-08-21T10:10:06;21.50;99.90
13482;DHT22;6813;60.352;15.746;2023-08-21T10:12:34;21.60;99.90
13482;DHT22;6813;60.352;15.746;2023-08-21T10:15:01;21.80;99.90
13482;DHT22;6813;60.352;15.746;2023-08-21T10:17:27;22.00;99.90
13482;DHT22;6813;60.352;15.746;2023-08-21T10:19:53;22.20;99.90
13482;DHT22;6813;60.352;15.746;2023-08-21T10:22:45;22.40;99.90
13482;DHT22;6813;60.352;15.746;2023-08-21T10:25:18;22.40;99.90
13482;DHT22;6813;60.352;15.746;2023-08-21T10:27:54;22.40;99.90
13482;DHT22;6813;60.352;15.746;2023-08-21T10:30:24;22.40;99.90
13482;DHT22;6813;60.352;15.746;2023-08-21T10:32:56;22.30;99.90
13482;DHT22;6813;60.352;15.746;2023-08-21T10:35:24;22.50;99.90
13482;DHT22;6813;60.352;15.746;2023-08-21T10:38:13;22.80;99.90
13482;DHT22;6813;60.352;15.746;2023-08-21T10:41:04;22.90;99.90
13482;DHT22;6813;60.352;15.746;2023-08-21T10:43:40;23.10;99.90
13482;DHT22;6813;60.352;15.746;2023-08-21T10:46:06;23.10;99.90
13482;DHT22;6813;60.352;15.746;2023-08-21T10:48:33;23.00;99.90
13482;DHT22;6813;60.352;15.746;2023-08-21T10:51:03;22.70;99.90
13482;DHT22;6813;60.352;15.746;2023-08-21T10:53:30;22.70;99.90
13482;DHT22;6813;60.352;15.746;2023-08-21T10:55:56;22.40;99.90
13482;DHT22;6813;60.352;15.746;2023-08-21T10:58:22;22.30;99.90
13482;DHT22;6813;60.352;15.746;2023-08-21T11:00:58;22.10;99.90
13482;DHT22;6813;60.352;15.746;2023-08-21T11:03:25;22.00;99.90
13482;DHT22;6813;60.352;15.746;2023-08-21T11:06:04;22.10;99.90
13482;DHT22;6813;60.352;15.746;2023-08-21T11:08:31;22.40;99.90
13482;DHT22;6813;60.352;15.746;2023-08-21T11:10:58;22.60;99.90
13482;DHT22;6813;60.352;15.746;2023-08-21T11:13:25;22.90;99.90
13482;DHT22;6813;60.352;15.746;2023-08-21T11:16:11;23.10;99.90
13482;DHT22;6813;60.352;15.746;2023-08-21T11:18:37;23.30;99.90
13482;DHT22;6813;60.352;15.746;2023-08-21T11:21:11;23.20;99.90
13482;DHT22;6813;60.352;15.746;2023-08-21T11:23:41;22.90;99.90
13482;DHT22;6813;60.352;15.746;2023-08-21T11:26:10;22.70;99.90
13482;DHT22;6813;60.352;15.746;2023-08-21T11:28:38;22.70;99.90
13482;DHT22;6813;60.352;15.746;2023-08-21T11:31:04;23.00;99.90
13482;DHT22;6813;60.352;15.746;2023-08-21T11:33:31;23.20;99.90
13482;DHT22;6813;60.352;15.746;2023-08-21T11:35:57;23.30;99.90
13482;DHT22;6813;60.352;15.746;2023-08-21T11:38:26;23.20;99.90
13482;DHT22;6813;60.352;15.746;2023-08-21T11:43:18;23.20;99.90
13482;DHT22;6813;60.352;15.746;2023-08-21T11:45:46;23.30;99.90
13482;DHT22;6813;60.352;15.746;2023-08-21T11:48:12;23.30;99.90
13482;DHT22;6813;60.352;15.746;2023-08-21T11:50:39;23.20;99.90
13482;DHT22;6813;60.352;15.746;2023-08-21T11:53:05;23.10;99.90
13482;DHT22;6813;60.352;15.746;2023-08-21T11:55:31;23.00;99.90
13482;DHT22;6813;60.352;15.746;2023-08-21T11:57:57;23.00;99.90
13482;DHT22;6813;60.352;15.746;2023-08-21T12:00:28;23.10;99.90
13482;DHT22;6813;60.352;15.746;2023-08-21T12:02:58;23.10;99.90
13482;DHT22;6813;60.352;15.746;2023-08-21T12:05:26;23.10;99.90
13482;DHT22;6813;60.352;15.746;2023-08-21T12:07:52;23.00;99.90
13482;DHT22;6813;60.352;15.746;2023-08-21T12:12:50;23.00;99.90
13482;DHT22;6813;60.352;15.746;2023-08-21T12:15:16;22.70;99.90
13482;DHT22;6813;60.352;15.746;2023-08-21T12:17:41;22.10;99.90
13482;DHT22;6813;60.352;15.746;2023-08-21T12:20:07;22.10;99.90
13482;DHT22;6813;60.352;15.746;2023-08-21T12:22:37;22.00;99.90
13482;DHT22;6813;60.352;15.746;2023-08-21T12:25:03;22.00;99.90
13482;DHT22;6813;60.352;15.746;2023-08-21T12:27:30;21.90;99.90
13482;DHT22;6813;60.352;15.746;2023-08-21T12:29:56;21.90;99.90
13482;DHT22;6813;60.352;15.746;2023-08-21T12:32:21;21.90;99.90
13482;DHT22;6813;60.352;15.746;2023-08-21T12:34:47;21.90;99.90
13482;DHT22;6813;60.352;15.746;2023-08-21T12:37:13;21.90;99.90
13482;DHT22;6813;60.352;15.746;2023-08-21T12:39:39;21.80;99.90
13482;DHT22;6813;60.352;15.746;2023-08-21T12:42:05;21.70;99.90
13482;DHT22;6813;60.352;15.746;2023-08-21T12:44:30;21.50;99.90
13482;DHT22;6813;60.352;15.746;2023-08-21T12:46:56;21.40;99.90
13482;DHT22;6813;60.352;15.746;2023-08-21T12:49:22;21.20;99.90
13482;DHT22;6813;60.352;15.746;2023-08-21T12:51:48;21.10;99.90
13482;DHT22;6813;60.352;15.746;2023-08-21T12:54:13;21.20;99.90
13482;DHT22;6813;60.352;15.746;2023-08-21T12:56:39;21.30;99.90
13482;DHT22;6813;60.352;15.746;2023-08-21T12:59:05;21.20;99.90
13482;DHT22;6813;60.352;15.746;2023-08-21T13:01:31;21.10;99.90
13482;DHT22;6813;60.352;15.746;2023-08-21T13:04:00;21.00;99.90
13482;DHT22;6813;60.352;15.746;2023-08-21T13:06:26;21.00;99.90
13482;DHT22;6813;60.352;15.746;2023-08-21T13:08:52;21.00;99.90
13482;DHT22;6813;60.352;15.746;2023-08-21T13:11:17;21.00;99.90
13482;DHT22;6813;60.352;15.746;2023-08-21T13:13:43;20.90;99.90
13482;DHT22;6813;60.352;15.746;2023-08-21T13:16:09;20.80;99.90
13482;DHT22;6813;60.352;15.746;2023-08-21T13:18:34;20.80;99.90
13482;DHT22;6813;60.352;15.746;2023-08-21T13:21:00;20.90;99.90
13482;DHT22;6813;60.352;15.746;2023-08-21T13:23:29;20.80;99.90
13482;DHT22;6813;60.352;15.746;2023-08-21T13:25:56;20.80;99.90
13482;DHT22;6813;60.352;15.746;2023-08-21T13:28:23;20.90;99.90
13482;DHT22;6813;60.352;15.746;2023-08-21T13:30:48;21.00;99.90
13482;DHT22;6813;60.352;15.746;2023-08-21T13:33:15;21.00;99.90
13482;DHT22;6813;60.352;15.746;2023-08-21T13:35:46;21.10;99.90
13482;DHT22;6813;60.352;15.746;2023-08-21T13:38:13;21.10;99.90
13482;DHT22;6813;60.352;15.746;2023-08-21T13:40:39;21.10;99.90
13482;DHT22;6813;60.352;15.746;2023-08-21T13:43:06;21.00;99.90
13482;DHT22;6813;60.352;15.746;2023-08-21T13:45:32;21.10;99.90
13482;DHT22;6813;60.352;15.746;2023-08-21T13:47:58;21.10;99.90
13482;DHT22;6813;60.352;15.746;2023-08-21T13:50:24;21.20;99.90
13482;DHT22;6813;60.352;15.746;2023-08-21T13:52:50;21.10;99.90
13482;DHT22;6813;60.352;15.746;2023-08-21T13:55:16;21.20;99.90
13482;DHT22;6813;60.352;15.746;2023-08-21T13:57:42;21.30;99.90
13482;DHT22;6813;60.352;15.746;2023-08-21T14:00:09;21.40;99.90
13482;DHT22;6813;60.352;15.746;2023-08-21T14:02:40;21.40;99.90
13482;DHT22;6813;60.352;15.746;2023-08-21T14:05:07;21.50;99.90
13482;DHT22;6813;60.352;15.746;2023-08-21T14:07:33;21.30;99.90
13482;DHT22;6813;60.352;15.746;2023-08-21T14:09:59;21.20;99.90
13482;DHT22;6813;60.352;15.746;2023-08-21T14:12:25;21.30;99.90
13482;DHT22;6813;60.352;15.746;2023-08-21T14:14:51;21.30;99.90
13482;DHT22;6813;60.352;15.746;2023-08-21T14:17:16;21.40;99.90
13482;DHT22;6813;60.352;15.746;2023-08-21T14:19:42;21.30;99.90
13482;DHT22;6813;60.352;15.746;2023-08-21T14:22:08;21.30;99.90
13482;DHT22;6813;60.352;15.746;2023-08-21T14:24:34;21.40;99.90
13482;DHT22;6813;60.352;15.746;2023-08-21T14:26:59;21.40;99.90
13482;DHT22;6813;60.352;15.746;2023-08-21T14:29:25;21.50;99.90
13482;DHT22;6813;60.352;15.746;2023-08-21T14:31:51;21.40;99.90
13482;DHT22;6813;60.352;15.746;2023-08-21T14:34:19;21.50;99.90
13482;DHT22;6813;60.352;15.746;2023-08-21T14:36:47;21.50;99.90
13482;DHT22;6813;60.352;15.746;2023-08-21T14:39:13;21.60;99.90
13482;DHT22;6813;60.352;15.746;2023-08-21T14:41:40;21.60;99.90
13482;DHT22;6813;60.352;15.746;2023-08-21T14:44:06;21.70;99.90
13482;DHT22;6813;60.352;15.746;2023-08-21T14:46:32;21.70;99.90
13482;DHT22;6813;60.352;15.746;2023-08-21T14:48:58;21.70;99.90
13482;DHT22;6813;60.352;15.746;2023-08-21T14:51:24;21.60;99.90
13482;DHT22;6813;60.352;15.746;2023-08-21T14:53:50;21.60;99.90
13482;DHT22;6813;60.352;15.746;2023-08-21T14:56:16;21.50;99.90
13482;DHT22;6813;60.352;15.746;2023-08-21T14:58:42;21.30;99.90
13482;DHT22;6813;60.352;15.746;2023-08-21T15:01:09;21.40;99.90
13482;DHT22;6813;60.352;15.746;2023-08-21T15:03:38;21.40;99.90
13482;DHT22;6813;60.352;15.746;2023-08-21T15:06:06;21.30;99.90
13482;DHT22;6813;60.352;15.746;2023-08-21T15:08:33;21.30;99.90
13482;DHT22;6813;60.352;15.746;2023-08-21T15:10:59;21.40;99.90
13482;DHT22;6813;60.352;15.746;2023-08-21T15:13:25;21.40;99.90
13482;DHT22;6813;60.352;15.746;2023-08-21T15:15:50;21.50;99.90
13482;DHT22;6813;60.352;15.746;2023-08-21T15:18:16;21.40;99.90
13482;DHT22;6813;60.352;15.746;2023-08-21T15:20:43;21.30;99.90
13482;DHT22;6813;60.352;15.746;2023-08-21T15:23:09;21.30;99.90
13482;DHT22;6813;60.352;15.746;2023-08-21T15:25:34;21.30;99.90
13482;DHT22;6813;60.352;15.746;2023-08-21T15:28:00;21.30;99.90
13482;DHT22;6813;60.352;15.746;2023-08-21T15:30:26;21.30;99.90
13482;DHT22;6813;60.352;15.746;2023-08-21T15:32:51;21.30;99.90
13482;DHT22;6813;60.352;15.746;2023-08-21T15:35:17;21.30;99.90
13482;DHT22;6813;60.352;15.746;2023-08-21T15:37:43;21.30;99.90
13482;DHT22;6813;60.352;15.746;2023-08-21T15:40:10;21.50;99.90
13482;DHT22;6813;60.352;15.746;2023-08-21T15:42:36;21.50;99.90